»·PEaware :: DAL511 KPHX-KLAX

DAL511 :: KPHX-KLAX

FLIGHT INFORMATION

Flight Status: Arrived
Operator:
Delta Air Lines
More flights by this operator :: More flights under this callsign
Pilot: Dave M. (4986)
Aircraft: BOEING 737-800
(B738)
More flights by this aircraft type
Origin: KPHX Phoenix Sky Harbor Intl
United States
Destination: KLAX Los Angeles Intl
United States
More flights between these airports :: More routes between these airports
Route: +KEENS2 MESSI ESTWD BRUEN2
File this flight plan on PilotEdge
Remarks: RMK / SIMBRIEF
Altitude:
(Current/Filed)
32,000ft
Speed:
(Current/Filed)
447kts
Departed: 06-Dec-18 01:41 PM
Arrived: 06-Dec-18 02:50 PM
Distance/Time
Traveled:
321nm/1:08
Distance/Time
To Go:
Arrived

Flight Plot

Page will automatically refresh every two minutes.

Flight plan parsing failed; only flown route is shown


Map Options




Map Legend


Flown Route
Filed Route
Departure Airport
Arrival Airport
Navaid (VOR, NDB)
Fix

Horizontal Profiles

Position Reports

Time Latitude Longitude Heading Altitude Ground
Speed
06-Dec-18 13:16 33.437405 -112.008162 270 1116ft 0kts
06-Dec-18 13:17 33.437405 -112.008162 270 1116ft 0kts
06-Dec-18 13:18 33.437405 -112.008162 270 1116ft 0kts
06-Dec-18 13:19 33.437405 -112.008162 270 1116ft 0kts
06-Dec-18 13:20 33.437405 -112.008162 270 1116ft 0kts
06-Dec-18 13:21 33.437405 -112.008162 270 1116ft 0kts
06-Dec-18 13:22 33.437405 -112.008162 270 1116ft 0kts
06-Dec-18 13:23 33.437405 -112.008162 270 1116ft 0kts
06-Dec-18 13:24 33.437405 -112.008162 270 1116ft 0kts
06-Dec-18 13:25 33.437405 -112.008162 270 1116ft 0kts
06-Dec-18 13:26 33.437405 -112.008162 270 1116ft 0kts
06-Dec-18 13:27 33.437405 -112.008162 270 1116ft 0kts
06-Dec-18 13:28 33.437405 -112.008162 270 1116ft 0kts
06-Dec-18 13:29 33.437246 -112.007828 339 1116ft 2kts
06-Dec-18 13:30 33.437092 -112.007806 359 1116ft 0kts
06-Dec-18 13:31 33.437092 -112.007806 359 1116ft 0kts
06-Dec-18 13:32 33.437330 -112.007749 30 1116ft 6kts
06-Dec-18 13:33 33.438362 -112.007363 2 1116ft 0kts
06-Dec-18 13:34 33.438362 -112.007363 2 1116ft 0kts
06-Dec-18 13:35 33.438375 -112.007363 2 1116ft 0kts
06-Dec-18 13:36 33.439758 -112.006633 87 1116ft 11kts
06-Dec-18 13:37 33.439744 -112.001891 91 1116ft 15kts
06-Dec-18 13:38 33.439769 -111.996631 88 1116ft 16kts
06-Dec-18 13:39 33.439786 -111.991509 64 1116ft 8kts
06-Dec-18 13:40 33.440827 -111.996701 269 1117ft 98kts
06-Dec-18 13:41 33.439949 -112.052460 258 3062ft 201kts
06-Dec-18 13:42 33.416426 -112.123546 246 5375ft 255kts
06-Dec-18 13:44 33.391018 -112.204210 265 8757ft 271kts
06-Dec-18 13:45 33.403243 -112.295525 276 11195ft 311kts
06-Dec-18 13:46 33.415874 -112.377232 275 13413ft 328kts
06-Dec-18 13:47 33.432278 -112.485831 274 16320ft 338kts
06-Dec-18 13:48 33.449138 -112.597398 273 16532ft 346kts
06-Dec-18 13:49 33.452180 -112.709300 263 19400ft 341kts
06-Dec-18 13:50 33.459763 -112.823595 282 21892ft 364kts
06-Dec-18 13:51 33.499407 -112.937197 284 24045ft 377kts
06-Dec-18 13:52 33.540603 -113.054139 284 25976ft 387kts
06-Dec-18 13:53 33.582082 -113.172432 283 28214ft 382kts
06-Dec-18 13:54 33.622388 -113.287898 282 30354ft 371kts
06-Dec-18 13:55 33.661479 -113.400426 281 32098ft 362kts
06-Dec-18 13:56 33.699611 -113.510888 281 32087ft 359kts
06-Dec-18 13:57 33.737549 -113.621249 281 32081ft 358kts
06-Dec-18 13:58 33.774818 -113.730196 281 32092ft 357kts
06-Dec-18 13:59 33.812477 -113.840769 281 32089ft 358kts
06-Dec-18 14:00 33.850000 -113.951182 281 32088ft 358kts
06-Dec-18 14:00 33.881428 -114.043954 281 32089ft 359kts
06-Dec-18 14:02 33.916852 -114.174410 271 32082ft 345kts
06-Dec-18 14:03 33.935805 -114.287720 271 32087ft 345kts
06-Dec-18 14:03 33.951627 -114.382335 271 32085ft 345kts
06-Dec-18 14:04 33.970528 -114.495525 271 32084ft 346kts
06-Dec-18 14:06 33.992566 -114.627955 271 32081ft 346kts
06-Dec-18 14:07 34.011058 -114.740048 270 32092ft 345kts
06-Dec-18 14:07 34.026530 -114.834434 270 32097ft 345kts
06-Dec-18 14:09 34.048161 -114.966887 271 32105ft 345kts
06-Dec-18 14:09 34.063631 -115.062285 272 32105ft 350kts
06-Dec-18 14:11 34.085527 -115.197664 273 32106ft 356kts
06-Dec-18 14:11 34.101038 -115.293764 273 32109ft 357kts
06-Dec-18 14:12 34.119855 -115.410886 273 32107ft 356kts
06-Dec-18 14:13 34.138583 -115.528042 273 32086ft 354kts
06-Dec-18 14:14 34.157104 -115.644694 273 32090ft 355kts
06-Dec-18 14:15 34.159877 -115.754159 256 32089ft 340kts
06-Dec-18 14:16 34.148057 -115.867775 256 32098ft 341kts
06-Dec-18 14:17 34.136621 -115.981117 256 32096ft 341kts
06-Dec-18 14:18 34.125307 -116.094510 256 32094ft 341kts
06-Dec-18 14:19 34.113940 -116.208304 257 32062ft 344kts
06-Dec-18 14:20 34.100632 -116.336943 257 29247ft 404kts
06-Dec-18 14:21 34.086675 -116.468152 257 26572ft 385kts
06-Dec-18 14:22 34.073408 -116.591693 257 24543ft 368kts
06-Dec-18 14:23 34.062121 -116.711907 257 22606ft 364kts
06-Dec-18 14:24 34.050927 -116.831267 258 20656ft 358kts
06-Dec-18 14:25 34.038699 -116.948501 257 18682ft 348kts
06-Dec-18 14:26 34.025060 -117.062515 258 16874ft 342kts
06-Dec-18 14:27 34.011629 -117.174187 258 15093ft 333kts
06-Dec-18 14:28 34.000542 -117.283190 261 13547ft 328kts
06-Dec-18 14:29 33.993140 -117.391858 262 13269ft 328kts
06-Dec-18 14:30 33.985687 -117.500251 262 13246ft 328kts
06-Dec-18 14:31 33.978246 -117.609063 262 13221ft 328kts
06-Dec-18 14:32 33.969311 -117.716814 248 13182ft 324kts
06-Dec-18 14:33 33.918803 -117.799976 251 13080ft 324kts
06-Dec-18 14:34 33.921628 -117.907081 271 13070ft 331kts
06-Dec-18 14:35 33.930092 -118.015033 271 13071ft 331kts
06-Dec-18 14:36 33.931598 -118.122257 252 13094ft 325kts
06-Dec-18 14:37 33.909685 -118.222049 251 11381ft 294kts
06-Dec-18 14:38 33.889700 -118.309447 252 9424ft 269kts
06-Dec-18 14:39 33.867235 -118.394133 252 9026ft 265kts
06-Dec-18 14:40 33.844790 -118.477815 252 9025ft 265kts
06-Dec-18 14:41 33.822241 -118.561773 252 9024ft 265kts
06-Dec-18 14:42 33.802064 -118.644454 278 7085ft 238kts
06-Dec-18 14:43 33.852323 -118.662588 11 4975ft 225kts
06-Dec-18 14:44 33.901735 -118.622987 46 2076ft 218kts
06-Dec-18 14:45 33.919263 -118.560423 81 2045ft 186kts
06-Dec-18 14:46 33.925279 -118.501458 81 1502ft 163kts
06-Dec-18 14:47 33.930497 -118.450297 81 662ft 151kts
06-Dec-18 14:48 33.935353 -118.402527 83 110ft 67kts
06-Dec-18 14:49 33.937349 -118.393700 81 110ft 6kts
06-Dec-18 14:50 33.938110 -118.393561 326 110ft 10kts
06-Dec-18 14:51 33.939248 -118.395343 263 110ft 9kts
06-Dec-18 14:52 33.938944 -118.398282 262 110ft 13kts
06-Dec-18 14:53 33.938295 -118.404425 263 110ft 20kts
06-Dec-18 14:54 33.937839 -118.409019 263 110ft 17kts
06-Dec-18 14:55 33.940823 -118.411882 352 110ft 22kts
06-Dec-18 14:56 33.946437 -118.412745 0 110ft 13kts
06-Dec-18 14:57 33.947575 -118.408361 82 110ft 18kts
06-Dec-18 14:58 33.945835 -118.405531 133 110ft 9kts

Navigation Log

Ident Type
Flight plan parsing failed, navigation log unavailable